CheckWX is a tool to help pilots better visualize weather data.  It is not intended as a substitute for an official pre-flight weather briefing.

20:31:25 UTC

EGMC METAR
Southend Airport
Southend, United Kingdom
Current

11 mins ago

EGMC 062020Z 28004KT CAVOK 16/08 Q1021
Observed
Jul-6 @ 20:20 UTC
Wind
  • 280° at 4 KTS
Visibility
10,000+ meters
Flight Rules
VFR
Cloud Levels
  • Clear skies
Temperature
16°C / 61°F
Dewpoint
C / 46°F
Humidity
59%
Altimeter
30.15" Hg
Pressure
1020.92 hPa
Previous

41 mins ago

EGMC 061950Z 28004KT CAVOK 17/08 Q1021
Observed
Jul-6 @ 19:50 UTC
Wind
  • 280° at 4 KTS
Visibility
10,000+ meters
Flight Rules
VFR
Cloud Levels
  • Clear skies
Temperature
17°C / 63°F
Dewpoint
C / 46°F
Humidity
56%
Altimeter
30.15" Hg
Pressure
1020.92 hPa
Previous

1 hour ago

EGMC 061920Z 28005KT CAVOK 18/08 Q1021
Observed
Jul-6 @ 19:20 UTC
Wind
  • 280° at 5 KTS
Visibility
10,000+ meters
Flight Rules
VFR
Cloud Levels
  • Clear skies
Temperature
18°C / 64°F
Dewpoint
C / 46°F
Humidity
52%
Altimeter
30.15" Hg
Pressure
1020.92 hPa